Terminal Aerodrome Forecast
Issued by NWS Atlanta, GA

Home | Current Version | Previous Version | Text Only | Print | Product List | Glossary On
Versions: 1 2 3 4 5 6 7 8 9 10 11 12 13 14 15 16 17 18 19 20 21 22 23 24 25 26 27 28 29 30 31 32 33 34 35 36
000
FTUS42 KFFC 250746 AAA
TAFATL
TAF AMD
KATL 250746Z 2508/2612 32009KT P6SM SCT100 BKN250
     FM251500 33008KT P6SM BKN120
     FM252100 33007KT P6SM OVC080
     FM260400 32009KT P6SM -SHRA OVC030
     FM260700 31008KT 5SM -SHRA BR OVC015=

USA.gov is the U.S. government's official web portal to all federal, state and local government web resources and services.